Time;durP1;ratioP1;P1;durP2;ratioP2;P2;SDS_P1;SDS_P2;PMS_P1;PMS_P2;Temp;Humidity;BMP_temperature;BMP_pressure;BME280_temperature;BME280_humidity;BME280_pressure;Samples;Min_cycle;Max_cycle;Signal;HPM_P1;HPM_P2
2021/09/09 00:00:09;;;;;;;;;;;;;;;18.30;64.17;101121.97;5073824;28;20260;-35
2021/09/09 00:02:34;;;;;;;;;;;;;;;18.27;64.64;101120.59;5073799;28;19909;-35
2021/09/09 00:04:59;;;;;;;;;;;;;;;18.23;65.20;101122.25;5073475;28;19953;-35
2021/09/09 00:07:24;;;;;;;;;;;;;;;18.20;64.51;101111.00;5073996;28;20372;-36
2021/09/09 00:09:49;;;;;;;;;;;;;;;18.16;64.93;101107.22;5073477;28;19908;-35
2021/09/09 00:12:15;;;;;;;;;;;;;;;18.14;66.80;101107.47;5073939;28;19924;-35
2021/09/09 00:14:40;;;;;;;;;;;;;;;18.06;65.75;101104.47;5072281;28;20010;-36
2021/09/09 00:17:06;;;;;;;;;;;;;;;17.94;68.31;101099.28;5074083;28;20398;-35
2021/09/09 00:19:31;;;;;;;;;;;;;;;17.84;68.41;101100.09;5073629;28;20367;-35
2021/09/09 00:21:56;;;;;;;;;;;;;;;17.81;66.29;101092.41;5073822;28;19908;-35
2021/09/09 00:24:21;;;;;;;;;;;;;;;17.81;65.94;101084.22;5074133;28;19915;-35
2021/09/09 00:26:46;;;;;;;;;;;;;;;17.84;65.75;101083.69;5073288;28;19915;-36
2021/09/09 00:29:12;;;;;;;;;;;;;;;17.89;65.65;101082.84;5073591;28;20020;-36
2021/09/09 00:31:37;;;;;;;;;;;;;;;17.89;66.45;101091.88;5073589;28;19908;-36
2021/09/09 00:34:02;;;;;;;;;;;;;;;17.88;65.91;101075.75;5077233;28;19944;-36
2021/09/09 00:36:27;;;;;;;;;;;;;;;17.84;65.80;101080.13;5077388;28;19909;-36
2021/09/09 00:38:52;;;;;;;;;;;;;;;17.84;65.60;101080.13;5077884;28;19915;-36
2021/09/09 00:41:18;;;;;;;;;;;;;;;17.82;66.03;101077.66;5078280;28;19908;-36
2021/09/09 00:43:43;;;;;;;;;;;;;;;17.82;65.94;101074.13;5077283;28;20003;-36
2021/09/09 00:46:08;;;;;;;;;;;;;;;17.78;66.21;101071.09;5077775;28;19915;-36
2021/09/09 00:48:34;;;;;;;;;;;;;;;17.76;66.33;101067.81;5077453;28;20264;-36
2021/09/09 00:50:59;;;;;;;;;;;;;;;17.74;65.81;101068.09;5077420;28;19914;-36
2021/09/09 00:53:24;;;;;;;;;;;;;;;17.75;65.65;101069.72;5077272;28;20006;-36
2021/09/09 00:55:50;;;;;;;;;;;;;;;17.75;65.51;101077.94;5076793;28;19912;-36
2021/09/09 00:58:15;;;;;;;;;;;;;;;17.74;65.78;101067.28;5077141;28;19923;-36
2021/09/09 01:00:40;;;;;;;;;;;;;;;17.74;65.44;101064.53;5077190;28;19908;-36
2021/09/09 01:03:06;;;;;;;;;;;;;;;17.73;65.79;101062.91;5076792;28;19908;-36
2021/09/09 01:05:32;;;;;;;;;;;;;;;17.70;65.66;101066.94;5076790;28;19909;-36
2021/09/09 01:07:57;;;;;;;;;;;;;;;17.68;65.85;101054.66;5076760;28;19922;-36
2021/09/09 01:10:23;;;;;;;;;;;;;;;17.69;65.58;101056.28;5077478;28;19908;-37
2021/09/09 01:12:48;;;;;;;;;;;;;;;17.66;65.73;101057.66;5077170;28;19909;-36
2021/09/09 01:15:13;;;;;;;;;;;;;;;17.65;65.87;101050.53;5076896;28;19995;-36
2021/09/09 01:17:38;;;;;;;;;;;;;;;17.63;66.24;101058.22;5076458;28;19913;-36
2021/09/09 01:20:04;;;;;;;;;;;;;;;17.59;67.70;101056.28;5076740;28;19912;-36
2021/09/09 01:22:30;;;;;;;;;;;;;;;17.56;67.38;101045.91;5077508;28;19916;-37
2021/09/09 01:24:56;;;;;;;;;;;;;;;17.51;66.64;101053.00;5076962;28;20045;-36
2021/09/09 01:27:21;;;;;;;;;;;;;;;17.51;66.21;101050.25;5077207;28;19954;-36
2021/09/09 01:29:46;;;;;;;;;;;;;;;17.48;67.75;101044.53;5076752;28;20255;-36
2021/09/09 01:32:12;;;;;;;;;;;;;;;17.45;66.21;101051.34;5074989;28;19908;-36
2021/09/09 01:34:38;;;;;;;;;;;;;;;17.44;66.32;101044.25;5075483;28;19908;-36
2021/09/09 01:37:03;;;;;;;;;;;;;;;17.44;66.35;101040.69;5076449;28;20414;-36
2021/09/09 01:39:29;;;;;;;;;;;;;;;17.41;66.78;101027.56;5076426;28;19909;-36
2021/09/09 01:41:55;;;;;;;;;;;;;;;17.37;66.65;101032.78;5076589;28;19909;-36
2021/09/09 01:44:21;;;;;;;;;;;;;;;17.34;67.73;101035.22;5075317;28;19908;-36
2021/09/09 01:46:46;;;;;;;;;;;;;;;17.32;67.70;101034.66;5076697;28;19908;-36
2021/09/09 01:49:12;;;;;;;;;;;;;;;17.27;68.64;101020.97;5076722;28;19915;-36
2021/09/09 01:51:37;;;;;;;;;;;;;;;17.20;68.45;101038.47;5076518;28;19916;-36
2021/09/09 01:54:03;;;;;;;;;;;;;;;17.15;67.76;101033.00;5076145;28;19915;-36
2021/09/09 01:56:29;;;;;;;;;;;;;;;17.12;69.24;101035.44;5076661;28;19931;-36
2021/09/09 01:58:54;;;;;;;;;;;;;;;17.04;70.85;101025.88;5076324;28;19942;-36
2021/09/09 02:01:20;;;;;;;;;;;;;;;17.00;68.66;101022.03;5076794;28;20344;-36
2021/09/09 02:03:45;;;;;;;;;;;;;;;16.99;70.65;101032.16;5075598;28;19947;-36
2021/09/09 02:06:10;;;;;;;;;;;;;;;16.96;68.94;101029.13;5075894;28;19947;-36
2021/09/09 02:08:36;;;;;;;;;;;;;;;16.92;68.71;101025.28;5075771;28;19930;-36
2021/09/09 02:11:01;;;;;;;;;;;;;;;16.91;68.37;101031.84;5076085;28;19913;-36
2021/09/09 02:13:26;;;;;;;;;;;;;;;16.93;68.06;101032.38;5075971;28;19909;-37
2021/09/09 02:15:51;;;;;;;;;;;;;;;16.94;68.29;101034.06;5075406;28;19919;-36
2021/09/09 02:18:17;;;;;;;;;;;;;;;16.95;67.62;101035.69;5075301;28;19938;-36
2021/09/09 02:20:42;;;;;;;;;;;;;;;16.94;67.84;101034.88;5075886;28;19908;-36
2021/09/09 02:23:07;;;;;;;;;;;;;;;16.94;67.95;101044.97;5075498;28;19908;-36
2021/09/09 02:25:32;;;;;;;;;;;;;;;16.91;67.82;101040.84;5075786;28;19966;-36
2021/09/09 02:27:57;;;;;;;;;;;;;;;16.90;67.71;101039.22;5075746;28;19924;-37
2021/09/09 02:30:23;;;;;;;;;;;;;;;16.89;67.80;101043.06;5075633;28;20280;-36
2021/09/09 02:32:48;;;;;;;;;;;;;;;16.85;68.10;101041.94;5075974;28;20258;-36
2021/09/09 02:35:13;;;;;;;;;;;;;;;16.83;67.99;101044.09;5074887;28;19913;-36
2021/09/09 02:37:40;;;;;;;;;;;;;;;16.81;67.79;101043.56;5075755;28;19953;-36
2021/09/09 02:40:06;;;;;;;;;;;;;;;16.79;68.09;101048.47;5073851;28;20320;-36
2021/09/09 02:42:32;;;;;;;;;;;;;;;16.76;68.13;101042.72;5075012;28;19962;-36
2021/09/09 02:44:57;;;;;;;;;;;;;;;16.76;67.99;101048.19;5075017;28;19908;-36
2021/09/09 02:47:23;;;;;;;;;;;;;;;16.70;68.02;101034.47;5075257;28;19931;-36
2021/09/09 02:49:48;;;;;;;;;;;;;;;16.67;67.86;101029.53;5075285;28;19908;-36
2021/09/09 02:52:13;;;;;;;;;;;;;;;16.68;68.12;101025.72;5074961;28;19912;-36
2021/09/09 02:54:39;;;;;;;;;;;;;;;16.70;67.99;101033.66;5074895;28;19943;-36
2021/09/09 02:57:04;;;;;;;;;;;;;;;16.68;68.64;101033.09;5075043;28;19947;-36
2021/09/09 02:59:29;;;;;;;;;;;;;;;16.68;68.40;101031.19;5074729;28;19908;-36
2021/09/09 03:01:54;;;;;;;;;;;;;;;16.66;69.10;101025.19;5075547;28;19912;-36
2021/09/09 03:04:20;;;;;;;;;;;;;;;16.63;68.64;101020.22;5074964;28;19908;-36
2021/09/09 03:06:45;;;;;;;;;;;;;;;16.61;68.52;101025.16;5075497;28;19913;-36
2021/09/09 03:09:10;;;;;;;;;;;;;;;16.60;68.34;101028.97;5075012;28;19909;-36
2021/09/09 03:11:35;;;;;;;;;;;;;;;16.60;68.71;101033.63;5074855;28;19912;-36
2021/09/09 03:14:00;;;;;;;;;;;;;;;16.57;68.69;101018.59;5074495;28;20070;-36
2021/09/09 03:16:26;;;;;;;;;;;;;;;16.53;68.35;101016.66;5075016;28;20301;-36
2021/09/09 03:18:51;;;;;;;;;;;;;;;16.52;68.37;101020.47;5074400;28;19909;-36
2021/09/09 03:21:16;;;;;;;;;;;;;;;16.51;69.85;101014.19;5075159;28;19912;-36
2021/09/09 03:23:41;;;;;;;;;;;;;;;16.48;69.36;101010.06;5073095;28;19908;-37
2021/09/09 03:26:06;;;;;;;;;;;;;;;16.48;69.28;101006.53;5074864;28;20318;-36
2021/09/09 03:28:32;;;;;;;;;;;;;;;16.48;69.53;100999.16;5074356;28;19930;-36
2021/09/09 03:30:57;;;;;;;;;;;;;;;16.46;70.11;101001.34;5074504;28;19908;-36
2021/09/09 03:33:22;;;;;;;;;;;;;;;16.39;71.26;100991.75;5074255;28;19915;-36
2021/09/09 03:35:48;;;;;;;;;;;;;;;16.34;70.95;100997.19;5074223;28;19908;-36
2021/09/09 03:38:13;;;;;;;;;;;;;;;16.28;71.39;101000.97;5074220;28;20057;-36
2021/09/09 03:40:39;;;;;;;;;;;;;;;16.26;71.63;101001.25;5074211;28;20245;-36
2021/09/09 03:43:04;;;;;;;;;;;;;;;16.20;73.45;101000.41;5074049;28;19915;-36
2021/09/09 03:45:29;;;;;;;;;;;;;;;16.17;71.86;100997.38;5074837;28;20297;-36
2021/09/09 03:47:55;;;;;;;;;;;;;;;16.19;71.27;101001.47;5073705;28;19998;-36
2021/09/09 03:50:20;;;;;;;;;;;;;;;16.22;70.93;100994.69;5074230;28;19908;-36
2021/09/09 03:52:46;;;;;;;;;;;;;;;16.24;70.85;100997.94;5073710;28;19954;-36
2021/09/09 03:55:11;;;;;;;;;;;;;;;16.25;71.69;100994.16;5074109;28;19915;-36
2021/09/09 03:57:36;;;;;;;;;;;;;;;16.23;71.06;100997.13;5073895;28;20336;-36
2021/09/09 04:00:02;;;;;;;;;;;;;;;16.28;70.74;101009.16;5073751;28;20356;-36
2021/09/09 04:02:28;;;;;;;;;;;;;;;16.29;70.92;101005.34;5074108;28;19909;-36
2021/09/09 04:04:53;;;;;;;;;;;;;;;16.27;70.77;101002.88;5073926;28;19991;-36
2021/09/09 04:07:18;;;;;;;;;;;;;;;16.26;70.57;101006.72;5073490;28;19923;-36
2021/09/09 04:09:43;;;;;;;;;;;;;;;16.27;70.56;101007.53;5074216;28;19909;-36
2021/09/09 04:12:08;;;;;;;;;;;;;;;16.25;70.96;101006.94;5074135;28;19916;-36
2021/09/09 04:14:34;;;;;;;;;;;;;;;16.22;71.18;101000.94;5073319;28;19931;-36
2021/09/09 04:16:59;;;;;;;;;;;;;;;16.25;70.86;101001.50;5074495;28;19912;-36
2021/09/09 04:19:25;;;;;;;;;;;;;;;16.26;71.06;101016.81;5073251;28;19908;-36
2021/09/09 04:21:51;;;;;;;;;;;;;;;16.23;72.04;101005.31;5073492;28;19915;-36
2021/09/09 04:24:16;;;;;;;;;;;;;;;16.22;71.34;101006.41;5074179;28;19919;-36
2021/09/09 04:26:41;;;;;;;;;;;;;;;16.23;72.17;101005.31;5073529;28;19943;-36
2021/09/09 04:29:06;;;;;;;;;;;;;;;16.23;71.56;101002.59;5073483;28;20010;-36
2021/09/09 04:31:32;;;;;;;;;;;;;;;16.23;73.67;100999.03;5073535;28;19908;-36
2021/09/09 04:33:57;;;;;;;;;;;;;;;16.24;73.23;100995.22;5073403;28;19909;-36
2021/09/09 04:36:22;;;;;;;;;;;;;;;16.27;72.19;101002.88;5073099;28;20356;-36
2021/09/09 04:38:47;;;;;;;;;;;;;;;16.31;72.51;100998.53;5073512;28;19998;-36
2021/09/09 04:41:14;;;;;;;;;;;;;;;16.33;73.32;100990.09;5073896;28;19912;-36
2021/09/09 04:43:40;;;;;;;;;;;;;;;16.34;72.56;100987.09;5073253;28;19931;-36
2021/09/09 04:46:05;;;;;;;;;;;;;;;16.31;72.89;100979.44;5073624;28;19912;-36
2021/09/09 04:48:30;;;;;;;;;;;;;;;16.31;72.61;100986.81;5073100;28;19947;-36
2021/09/09 04:50:55;;;;;;;;;;;;;;;16.29;72.36;100980.78;5073059;28;20352;-36
2021/09/09 04:53:21;;;;;;;;;;;;;;;16.29;72.42;100973.41;5072996;28;20367;-36
2021/09/09 04:55:46;;;;;;;;;;;;;;;16.30;73.10;100963.31;5073440;28;20355;-36
2021/09/09 04:58:11;;;;;;;;;;;;;;;16.27;72.11;100972.88;5072958;28;19997;-36
2021/09/09 05:00:36;;;;;;;;;;;;;;;16.17;75.50;100970.91;5073480;28;20023;-36
2021/09/09 05:03:01;;;;;;;;;;;;;;;16.12;75.31;100976.34;5073066;28;19985;-36
2021/09/09 05:05:27;;;;;;;;;;;;;;;16.10;73.45;100975.78;5073174;28;19908;-36
2021/09/09 05:07:52;;;;;;;;;;;;;;;16.11;72.66;100974.72;5073033;28;19908;-36
2021/09/09 05:10:17;;;;;;;;;;;;;;;16.16;72.39;100976.66;5072939;28;19909;-36
2021/09/09 05:12:42;;;;;;;;;;;;;;;16.17;72.25;100968.19;5073242;28;19955;-36
2021/09/09 05:15:08;;;;;;;;;;;;;;;16.18;72.44;100966.28;5072749;28;20232;-36
2021/09/09 05:17:33;;;;;;;;;;;;;;;16.15;72.23;100962.19;5073524;28;19913;-36
2021/09/09 05:19:58;;;;;;;;;;;;;;;16.15;72.14;100973.09;5074320;28;19931;-36
2021/09/09 05:22:24;;;;;;;;;;;;;;;16.17;71.71;100970.91;5076293;28;20376;-36
2021/09/09 05:24:49;;;;;;;;;;;;;;;16.20;72.18;100964.09;5076516;28;19969;-36
2021/09/09 05:27:14;;;;;;;;;;;;;;;16.24;72.46;100965.22;5077131;28;19943;-36
2021/09/09 05:29:39;;;;;;;;;;;;;;;16.27;71.98;100963.88;5076989;28;19986;-36
2021/09/09 05:32:05;;;;;;;;;;;;;;;16.27;72.08;100959.22;5076762;28;19919;-36
2021/09/09 05:34:30;;;;;;;;;;;;;;;16.31;71.83;100964.97;5076413;28;19995;-36
2021/09/09 05:36:56;;;;;;;;;;;;;;;16.34;72.14;100964.44;5077140;28;19908;-36
2021/09/09 05:39:21;;;;;;;;;;;;;;;16.39;72.02;100959.00;5076194;28;19908;-36
2021/09/09 05:41:46;;;;;;;;;;;;;;;16.41;71.91;100954.09;5076225;28;20337;-36
2021/09/09 05:44:11;;;;;;;;;;;;;;;16.45;72.63;100953.31;5076529;28;19908;-36
2021/09/09 05:46:36;;;;;;;;;;;;;;;16.49;72.11;100959.03;5076712;28;19908;-36
2021/09/09 05:49:02;;;;;;;;;;;;;;;16.52;72.76;100963.97;5076415;28;19908;-36
2021/09/09 05:51:27;;;;;;;;;;;;;;;16.51;72.98;100953.31;5076083;28;20002;-36
2021/09/09 05:53:52;;;;;;;;;;;;;;;16.50;74.19;100954.41;5076308;28;19915;-36
2021/09/09 05:56:17;;;;;;;;;;;;;;;16.42;75.22;100953.00;5075579;28;19915;-36
2021/09/09 05:58:43;;;;;;;;;;;;;;;16.41;75.04;100943.19;5075928;28;19908;-36
2021/09/09 06:01:08;;;;;;;;;;;;;;;16.46;74.70;100948.66;5075884;28;20006;-36
2021/09/09 06:03:34;;;;;;;;;;;;;;;16.55;74.25;100938.88;5075571;28;19908;-36
2021/09/09 06:06:04;;;;;;;;;;;;;;;16.63;74.00;100937.50;5076114;28;19927;-36
2021/09/09 06:08:32;;;;;;;;;;;;;;;16.69;73.48;100931.81;5091426;28;19908;-36
2021/09/09 06:10:57;;;;;;;;;;;;;;;16.69;75.57;100933.72;5076595;28;19909;-36
2021/09/09 06:13:23;;;;;;;;;;;;;;;16.75;74.84;100943.59;5075694;28;19908;-36
2021/09/09 06:15:48;;;;;;;;;;;;;;;16.82;73.34;100946.06;5075648;28;19974;-36
2021/09/09 06:18:13;;;;;;;;;;;;;;;16.89;74.18;100943.91;5075491;28;20000;-36
2021/09/09 06:20:39;;;;;;;;;;;;;;;16.93;73.59;100950.44;5075477;28;19908;-36
2021/09/09 06:23:04;;;;;;;;;;;;;;;16.99;73.42;100957.56;5075435;28;20406;-36
2021/09/09 06:25:29;;;;;;;;;;;;;;;17.06;73.52;100977.25;5075433;28;20333;-36
2021/09/09 06:27:54;;;;;;;;;;;;;;;17.06;74.62;100987.34;5075445;28;20395;-36
2021/09/09 06:30:19;;;;;;;;;;;;;;;17.05;74.66;100966.59;5074835;28;19991;-36
2021/09/09 06:32:45;;;;;;;;;;;;;;;17.00;75.73;100953.75;5075275;28;20007;-36
2021/09/09 06:35:10;;;;;;;;;;;;;;;16.97;74.95;100971.47;5076021;28;19959;-36
2021/09/09 06:37:35;;;;;;;;;;;;;;;17.02;75.47;100981.59;5074642;28;19909;-36
2021/09/09 06:40:00;;;;;;;;;;;;;;;17.09;74.62;100973.97;5074893;28;19915;-36
2021/09/09 06:42:26;;;;;;;;;;;;;;;17.13;74.72;100974.25;5075292;28;19908;-36
2021/09/09 06:44:52;;;;;;;;;;;;;;;17.17;74.65;100970.69;5074800;28;19908;-36
2021/09/09 06:47:17;;;;;;;;;;;;;;;17.22;74.52;100965.22;5075005;28;19908;-36
2021/09/09 06:49:42;;;;;;;;;;;;;;;17.30;74.62;100963.88;5075028;28;19931;-36
2021/09/09 06:52:07;;;;;;;;;;;;;;;17.37;73.99;100966.31;5075734;28;19931;-36
2021/09/09 06:54:32;;;;;;;;;;;;;;;17.45;74.14;100969.34;5075235;28;20205;-36
2021/09/09 06:56:58;;;;;;;;;;;;;;;17.51;74.07;100962.78;5075065;28;19958;-36
2021/09/09 06:59:23;;;;;;;;;;;;;;;17.57;73.64;100966.34;5074660;28;19970;-36
2021/09/09 07:01:48;;;;;;;;;;;;;;;17.62;73.61;100968.25;5075216;28;19918;-36
2021/09/09 07:04:13;;;;;;;;;;;;;;;17.69;73.57;100968.78;5074614;28;19908;-36
2021/09/09 07:06:38;;;;;;;;;;;;;;;17.77;73.67;100975.66;5075400;28;19908;-36
2021/09/09 07:09:04;;;;;;;;;;;;;;;17.84;73.31;100977.00;5074254;28;20375;-36
2021/09/09 07:11:29;;;;;;;;;;;;;;;17.91;73.68;100977.53;5074270;28;19915;-36
2021/09/09 07:13:54;;;;;;;;;;;;;;;17.99;73.69;100973.41;5074287;28;19934;-36
2021/09/09 07:16:19;;;;;;;;;;;;;;;18.06;73.50;100973.13;5074680;28;19912;-37
2021/09/09 07:18:45;;;;;;;;;;;;;;;18.12;73.45;100967.38;5074274;28;19912;-36
2021/09/09 07:21:10;;;;;;;;;;;;;;;18.20;73.19;100974.16;5074286;28;19915;-36
2021/09/09 07:23:35;;;;;;;;;;;;;;;18.27;72.92;100975.53;5073895;28;20018;-37
2021/09/09 07:26:00;;;;;;;;;;;;;;;18.37;73.16;100968.38;5074258;28;19908;-36
2021/09/09 07:28:26;;;;;;;;;;;;;;;18.44;72.92;100971.63;5074217;28;20371;-36
2021/09/09 07:30:51;;;;;;;;;;;;;;;18.51;72.54;100970.22;5074412;28;20264;-36
2021/09/09 07:33:16;;;;;;;;;;;;;;;18.58;72.26;100966.34;5073827;28;19908;-36
2021/09/09 07:35:42;;;;;;;;;;;;;;;18.66;72.14;100963.84;5074745;28;19909;-36
2021/09/09 07:38:07;;;;;;;;;;;;;;;18.77;71.83;100970.94;5074305;28;19908;-36
2021/09/09 07:40:32;;;;;;;;;;;;;;;18.85;71.62;100971.47;5074557;28;19908;-36
2021/09/09 07:42:58;;;;;;;;;;;;;;;18.93;71.24;100960.69;5073405;28;19908;-36
2021/09/09 07:45:23;;;;;;;;;;;;;;;19.00;71.22;100965.88;5073910;28;19954;-36
2021/09/09 07:47:49;;;;;;;;;;;;;;;19.02;71.42;100959.00;5074273;28;19908;-36
2021/09/09 07:50:14;;;;;;;;;;;;;;;19.15;71.16;100962.22;5074228;28;19908;-36
2021/09/09 07:52:40;;;;;;;;;;;;;;;19.21;70.88;100956.41;5073831;28;19909;-36
2021/09/09 07:55:06;;;;;;;;;;;;;;;19.28;70.52;100965.13;5073863;28;19912;-36
2021/09/09 07:57:32;;;;;;;;;;;;;;;19.38;70.62;100972.44;5074284;28;19916;-36
2021/09/09 07:59:57;;;;;;;;;;;;;;;19.44;70.78;100970.47;5073702;28;19908;-36
2021/09/09 08:02:22;;;;;;;;;;;;;;;19.51;70.51;100973.69;5073584;28;19916;-36
2021/09/09 08:04:47;;;;;;;;;;;;;;;19.63;71.41;100957.72;5074020;28;20340;-36
2021/09/09 08:07:12;;;;;;;;;;;;;;;19.75;70.72;100971.03;5074139;28;19919;-36
2021/09/09 08:09:38;;;;;;;;;;;;;;;19.86;70.39;100969.00;5073522;28;20255;-36
2021/09/09 08:12:03;;;;;;;;;;;;;;;20.00;70.70;100965.28;5072535;28;20350;-36
2021/09/09 08:14:29;;;;;;;;;;;;;;;20.15;70.68;100974.47;5073266;28;19955;-36
2021/09/09 08:16:54;;;;;;;;;;;;;;;20.28;70.56;100977.34;5073776;28;19912;-36
2021/09/09 08:19:19;;;;;;;;;;;;;;;20.37;70.20;100973.94;5073455;28;20017;-36
2021/09/09 08:21:44;;;;;;;;;;;;;;;20.40;69.90;100971.44;5073173;28;20410;-36
2021/09/09 08:24:09;;;;;;;;;;;;;;;20.48;70.38;100984.53;5073642;28;20337;-36
2021/09/09 08:26:35;;;;;;;;;;;;;;;20.56;70.04;100986.63;5073797;28;19912;-36
2021/09/09 08:29:00;;;;;;;;;;;;;;;20.65;70.41;100989.56;5073878;28;19909;-36
2021/09/09 08:31:27;;;;;;;;;;;;;;;20.73;70.07;100979.81;5073111;28;19919;-36
2021/09/09 08:33:52;;;;;;;;;;;;;;;20.80;69.50;100975.59;5073258;28;19909;-36
2021/09/09 08:36:19;;;;;;;;;;;;;;;20.91;69.60;100989.19;5073025;28;19916;-36
2021/09/09 08:38:44;;;;;;;;;;;;;;;21.00;69.21;100990.16;5072982;28;19908;-37
2021/09/09 08:41:09;;;;;;;;;;;;;;;21.08;69.40;100994.97;5073389;28;19915;-36
2021/09/09 08:43:35;;;;;;;;;;;;;;;21.15;68.98;100987.19;5073140;28;19987;-36
2021/09/09 08:46:01;;;;;;;;;;;;;;;21.24;69.08;100985.41;5073297;28;19908;-36
2021/09/09 08:48:27;;;;;;;;;;;;;;;21.32;68.88;100984.72;5072974;28;20265;-36
2021/09/09 08:50:53;;;;;;;;;;;;;;;21.41;68.30;100976.63;5073337;28;19908;-37
2021/09/09 08:53:18;;;;;;;;;;;;;;;21.48;68.30;100981.75;5074360;28;19908;-37
2021/09/09 08:55:44;;;;;;;;;;;;;;;21.53;68.14;100978.91;5077396;28;19970;-37
2021/09/09 08:58:09;;;;;;;;;;;;;;;21.60;68.01;100976.59;5076819;28;20011;-36
2021/09/09 09:00:34;;;;;;;;;;;;;;;21.66;67.95;100980.88;5077563;28;19955;-37
2021/09/09 09:03:00;;;;;;;;;;;;;;;21.71;68.28;100971.72;5077245;28;19954;-36
2021/09/09 09:05:25;;;;;;;;;;;;;;;21.77;68.05;100976.84;5077178;28;19920;-37
2021/09/09 09:07:58;;;;;;;;;;;;;;;21.92;67.68;100977.69;5076905;28;19912;-36
2021/09/09 09:10:23;;;;;;;;;;;;;;;22.06;67.47;100979.31;5076820;28;20291;-37
2021/09/09 09:12:48;;;;;;;;;;;;;;;22.13;67.29;100976.19;5077390;28;19908;-37
2021/09/09 09:15:17;;;;;;;;;;;;;;;22.19;67.56;100976.91;5076712;28;19908;-36
2021/09/09 09:17:56;;;;;;;;;;;;;;;22.32;66.88;100976.91;5077911;28;19913;-36
2021/09/09 09:20:21;;;;;;;;;;;;;;;22.46;66.59;100979.66;5077148;28;19912;-36
2021/09/09 09:22:46;;;;;;;;;;;;;;;22.56;66.67;100981.38;5077421;28;19984;-37
2021/09/09 09:25:12;;;;;;;;;;;;;;;22.67;66.43;100982.78;5077058;28;20249;-36
2021/09/09 09:27:45;;;;;;;;;;;;;;;22.77;66.92;100979.81;5076310;28;19908;-36
2021/09/09 09:30:11;;;;;;;;;;;;;;;22.87;67.03;100979.56;5076773;28;19917;-37
2021/09/09 09:32:44;;;;;;;;;;;;;;;22.90;66.74;100969.09;5076697;28;19909;-37
2021/09/09 09:35:11;;;;;;;;;;;;;;;22.88;66.02;100972.97;5076925;28;19908;-37
2021/09/09 09:37:36;;;;;;;;;;;;;;;22.93;66.37;100982.25;5076953;28;19915;-37
2021/09/09 09:40:08;;;;;;;;;;;;;;;22.90;66.05;100982.88;5075019;28;19909;-37
2021/09/09 09:42:33;;;;;;;;;;;;;;;22.95;66.47;100993.78;5075593;28;19908;-36
2021/09/09 09:45:08;;;;;;;;;;;;;;;23.13;65.75;101001.91;5075943;28;20279;-36
2021/09/09 09:47:34;;;;;;;;;;;;;;;23.29;65.81;100998.78;5076225;28;19908;-36
2021/09/09 09:50:00;;;;;;;;;;;;;;;23.43;64.94;100995.97;5076150;28;20437;-37
2021/09/09 09:52:27;;;;;;;;;;;;;;;23.47;64.78;100994.19;5076710;28;19912;-37
2021/09/09 09:54:53;;;;;;;;;;;;;;;23.38;64.79;101003.25;5076352;28;19961;-36
2021/09/09 09:57:20;;;;;;;;;;;;;;;23.33;64.75;101000.63;5075770;28;20332;-36
2021/09/09 09:59:45;;;;;;;;;;;;;;;23.32;65.16;100998.97;5075978;28;20298;-37
2021/09/09 10:02:11;;;;;;;;;;;;;;;23.34;65.18;100996.72;5076133;28;20002;-37
2021/09/09 10:04:39;;;;;;;;;;;;;;;23.44;64.81;100992.09;5075721;28;19915;-36
2021/09/09 10:07:05;;;;;;;;;;;;;;;23.56;64.56;100989.56;5075611;28;20345;-37
2021/09/09 10:09:31;;;;;;;;;;;;;;;23.61;63.67;100989.41;5075557;28;19908;-37
2021/09/09 10:11:56;;;;;;;;;;;;;;;23.70;63.34;100993.09;5076173;28;20352;-37
2021/09/09 10:14:23;;;;;;;;;;;;;;;23.75;63.99;100997.66;5075625;28;19915;-37
2021/09/09 10:16:50;;;;;;;;;;;;;;;23.90;63.47;100995.31;5076118;28;20269;-37
2021/09/09 10:19:22;;;;;;;;;;;;;;;23.96;63.41;100989.66;5075597;28;19919;-37
2021/09/09 10:21:48;;;;;;;;;;;;;;;23.97;63.76;101002.34;5075489;28;20344;-38
2021/09/09 10:24:28;;;;;;;;;;;;;;;23.98;63.36;100985.44;5074554;28;19979;-37
2021/09/09 10:27:13;;;;;;;;;;;;;;;24.05;63.95;100991.31;5075964;28;19999;-37
2021/09/09 10:29:41;;;;;;;;;;;;;;;24.27;62.58;100995.97;5075354;28;20102;-37
2021/09/09 10:32:07;;;;;;;;;;;;;;;24.43;63.34;100990.03;5075467;28;20342;-37
2021/09/09 10:34:32;;;;;;;;;;;;;;;24.56;62.59;100989.09;5075575;28;19955;-37
2021/09/09 10:36:57;;;;;;;;;;;;;;;24.68;62.53;100992.03;5075991;28;20275;-37
2021/09/09 10:39:35;;;;;;;;;;;;;;;24.77;62.00;100981.81;5074891;28;19915;-37
2021/09/09 10:42:20;;;;;;;;;;;;;;;24.86;61.07;100985.41;5075423;28;20286;-37
2021/09/09 10:44:49;;;;;;;;;;;;;;;24.93;61.50;100990.44;5075560;28;19912;-37
2021/09/09 10:47:19;;;;;;;;;;;;;;;24.99;61.48;100991.94;5075488;28;19908;-37
2021/09/09 10:49:44;;;;;;;;;;;;;;;25.01;61.11;100988.84;5075197;28;19991;-37
2021/09/09 10:52:13;;;;;;;;;;;;;;;24.91;61.04;100999.06;5075302;28;20016;-37
2021/09/09 10:54:57;;;;;;;;;;;;;;;24.77;61.25;100995.63;5075008;28;19959;-37
2021/09/09 10:57:23;;;;;;;;;;;;;;;24.66;61.50;100999.84;5074980;28;19908;-37
2021/09/09 10:59:48;;;;;;;;;;;;;;;24.58;61.96;101001.44;5074470;28;19916;-37
2021/09/09 11:02:14;;;;;;;;;;;;;;;24.56;62.35;101009.25;5075564;28;19908;-37
2021/09/09 11:04:40;;;;;;;;;;;;;;;24.56;62.08;101009.25;5075261;28;19908;-37
2021/09/09 11:07:19;;;;;;;;;;;;;;;24.50;61.68;101013.31;5075237;28;20356;-37
2021/09/09 11:09:44;;;;;;;;;;;;;;;24.43;62.04;101009.38;5074639;28;19909;-34
2021/09/09 11:12:09;;;;;;;;;;;;;;;24.35;62.62;100997.97;5074704;28;19908;-34
2021/09/09 11:14:34;;;;;;;;;;;;;;;24.39;62.54;101010.00;5074720;28;20002;-34
2021/09/09 11:17:00;;;;;;;;;;;;;;;24.47;62.58;101002.09;5074675;28;19919;-34
2021/09/09 11:19:25;;;;;;;;;;;;;;;24.57;62.41;100999.03;5074346;28;19913;-36
2021/09/09 11:21:51;;;;;;;;;;;;;;;24.66;62.75;100992.38;5074564;28;19916;-37
2021/09/09 11:24:17;;;;;;;;;;;;;;;24.80;62.32;100988.66;5074488;28;19912;-37
2021/09/09 11:26:44;;;;;;;;;;;;;;;25.03;62.12;100994.84;5075091;28;19908;-37
2021/09/09 11:29:09;;;;;;;;;;;;;;;25.24;61.74;100990.34;5074185;28;20353;-37
2021/09/09 11:31:43;;;;;;;;;;;;;;;25.36;60.96;100998.78;5074578;28;19950;-37
2021/09/09 11:34:09;;;;;;;;;;;;;;;25.39;61.35;100991.78;5074134;28;19995;-37
2021/09/09 11:36:35;;;;;;;;;;;;;;;25.52;61.77;100995.50;5074806;28;20376;-37
2021/09/09 11:39:02;;;;;;;;;;;;;;;25.68;60.79;100997.44;5073931;28;19908;-37
2021/09/09 11:41:31;;;;;;;;;;;;;;;25.80;60.47;100991.25;5074676;28;19909;-37
2021/09/09 11:43:58;;;;;;;;;;;;;;;25.87;59.79;100988.78;5074601;28;19912;-37
2021/09/09 11:46:29;;;;;;;;;;;;;;;25.90;60.60;100987.28;5074517;28;20361;-37
2021/09/09 11:48:55;;;;;;;;;;;;;;;25.97;60.38;100984.84;5074245;28;20003;-37
2021/09/09 11:51:32;;;;;;;;;;;;;;;26.07;60.21;100987.25;5074745;28;19954;-37
2021/09/09 11:53:58;;;;;;;;;;;;;;;26.21;59.73;100984.25;5073926;28;19994;-37
2021/09/09 11:56:23;;;;;;;;;;;;;;;26.32;60.35;100984.69;5074143;28;20349;-37
2021/09/09 11:58:48;;;;;;;;;;;;;;;26.43;59.96;100974.88;5074251;28;19912;-37
2021/09/09 12:01:14;;;;;;;;;;;;;;;26.39;59.40;100977.47;5073723;28;20344;-37
2021/09/09 12:03:40;;;;;;;;;;;;;;;26.31;59.81;100972.78;5073762;28;19955;-37
2021/09/09 12:06:06;;;;;;;;;;;;;;;26.19;59.84;100984.56;5074579;28;20332;-37
2021/09/09 12:08:35;;;;;;;;;;;;;;;26.29;60.40;100983.38;5073652;28;19916;-37
2021/09/09 12:11:08;;;;;;;;;;;;;;;26.52;60.34;100978.41;5074564;28;20007;-37
2021/09/09 12:13:33;;;;;;;;;;;;;;;26.76;59.75;100986.09;5073988;28;19912;-37
2021/09/09 12:16:18;;;;;;;;;;;;;;;26.93;58.45;100983.16;5073763;28;20006;-37
2021/09/09 12:18:44;;;;;;;;;;;;;;;27.04;59.21;100983.59;5073883;28;19954;-37
2021/09/09 12:21:14;;;;;;;;;;;;;;;27.10;58.72;100981.47;5073646;28;19987;-37
2021/09/09 12:23:54;;;;;;;;;;;;;;;27.16;58.84;100980.09;5073609;28;19909;-37
2021/09/09 12:26:20;;;;;;;;;;;;;;;27.11;58.31;100988.63;5074086;28;19958;-37
2021/09/09 12:28:45;;;;;;;;;;;;;;;26.96;57.92;100979.72;5076760;28;19908;-37